sensor_id;sensor_type;location;lat;lon;timestamp;pressure;altitude;pressure_sealevel;temperature;humidity
54022;BME280;39936;51.058;17.220;2022-11-11T00:01:07;103152.19;;;5.09;100.00
54022;BME280;39936;51.058;17.220;2022-11-11T00:04:23;103155.32;;;5.09;100.00
54022;BME280;39936;51.058;17.220;2022-11-11T00:08:16;103152.19;;;5.13;100.00
54022;BME280;39936;51.058;17.220;2022-11-11T00:11:51;103157.97;;;5.15;100.00
54022;BME280;39936;51.058;17.220;2022-11-11T00:15:15;103155.08;;;5.16;100.00
54022;BME280;39936;51.058;17.220;2022-11-11T00:18:54;103150.16;;;5.15;100.00
54022;BME280;39936;51.058;17.220;2022-11-11T00:22:21;103148.76;;;5.12;100.00
54022;BME280;39936;51.058;17.220;2022-11-11T00:25:54;103141.45;;;5.06;100.00
54022;BME280;39936;51.058;17.220;2022-11-11T00:29:29;103139.32;;;4.99;100.00
54022;BME280;39936;51.058;17.220;2022-11-11T00:32:44;103140.14;;;4.94;100.00
54022;BME280;39936;51.058;17.220;2022-11-11T00:36:15;103145.41;;;4.92;100.00
54022;BME280;39936;51.058;17.220;2022-11-11T00:40:00;103150.11;;;4.93;100.00
54022;BME280;39936;51.058;17.220;2022-11-11T00:43:33;103142.93;;;4.89;100.00
54022;BME280;39936;51.058;17.220;2022-11-11T00:47:34;103142.81;;;4.87;100.00
54022;BME280;39936;51.058;17.220;2022-11-11T00:51:16;103138.78;;;4.88;100.00
54022;BME280;39936;51.058;17.220;2022-11-11T00:54:50;103141.11;;;4.90;100.00
54022;BME280;39936;51.058;17.220;2022-11-11T00:58:22;103142.34;;;4.89;100.00
54022;BME280;39936;51.058;17.220;2022-11-11T01:01:34;103141.30;;;4.88;100.00
54022;BME280;39936;51.058;17.220;2022-11-11T01:05:18;103148.65;;;4.86;100.00
54022;BME280;39936;51.058;17.220;2022-11-11T01:09:24;103154.73;;;4.84;100.00
54022;BME280;39936;51.058;17.220;2022-11-11T01:12:47;103154.32;;;4.83;100.00
54022;BME280;39936;51.058;17.220;2022-11-11T01:16:15;103155.47;;;4.82;100.00
54022;BME280;39936;51.058;17.220;2022-11-11T01:19:49;103165.02;;;4.78;100.00
54022;BME280;39936;51.058;17.220;2022-11-11T01:23:19;103172.09;;;4.74;100.00
54022;BME280;39936;51.058;17.220;2022-11-11T01:26:53;103168.68;;;4.69;100.00
54022;BME280;39936;51.058;17.220;2022-11-11T01:30:34;103168.43;;;4.61;100.00
54022;BME280;39936;51.058;17.220;2022-11-11T01:34:19;103158.77;;;4.59;100.00
54022;BME280;39936;51.058;17.220;2022-11-11T01:38:05;103152.36;;;4.58;100.00
54022;BME280;39936;51.058;17.220;2022-11-11T01:41:31;103155.95;;;4.58;100.00
54022;BME280;39936;51.058;17.220;2022-11-11T01:48:46;103146.80;;;4.58;100.00
54022;BME280;39936;51.058;17.220;2022-11-11T01:52:45;103148.76;;;4.60;100.00
54022;BME280;39936;51.058;17.220;2022-11-11T01:56:33;103143.81;;;4.61;100.00
54022;BME280;39936;51.058;17.220;2022-11-11T01:59:44;103133.74;;;4.59;100.00
54022;BME280;39936;51.058;17.220;2022-11-11T02:03:17;103129.88;;;4.58;100.00
54022;BME280;39936;51.058;17.220;2022-11-11T02:07:05;103126.80;;;4.50;100.00
54022;BME280;39936;51.058;17.220;2022-11-11T02:10:46;103125.15;;;4.48;100.00
54022;BME280;39936;51.058;17.220;2022-11-11T02:14:52;103128.65;;;4.48;100.00
54022;BME280;39936;51.058;17.220;2022-11-11T02:18:28;103126.56;;;4.52;100.00
54022;BME280;39936;51.058;17.220;2022-11-11T02:26:10;103117.34;;;4.43;100.00
54022;BME280;39936;51.058;17.220;2022-11-11T02:29:42;103121.94;;;4.48;100.00
54022;BME280;39936;51.058;17.220;2022-11-11T02:33:38;103124.33;;;4.45;100.00
54022;BME280;39936;51.058;17.220;2022-11-11T02:37:27;103140.16;;;4.54;100.00
54022;BME280;39936;51.058;17.220;2022-11-11T02:41:10;103140.52;;;4.59;100.00
54022;BME280;39936;51.058;17.220;2022-11-11T02:44:55;103145.27;;;4.57;100.00
54022;BME280;39936;51.058;17.220;2022-11-11T02:48:24;103153.00;;;4.55;100.00
54022;BME280;39936;51.058;17.220;2022-11-11T02:52:35;103147.46;;;4.52;100.00
54022;BME280;39936;51.058;17.220;2022-11-11T02:56:07;103135.46;;;4.44;100.00
54022;BME280;39936;51.058;17.220;2022-11-11T02:59:40;103139.30;;;4.40;100.00
54022;BME280;39936;51.058;17.220;2022-11-11T03:03:15;103136.51;;;4.41;100.00
54022;BME280;39936;51.058;17.220;2022-11-11T03:06:48;103119.80;;;4.32;100.00
54022;BME280;39936;51.058;17.220;2022-11-11T03:10:08;103123.29;;;4.34;100.00
54022;BME280;39936;51.058;17.220;2022-11-11T03:13:36;103123.70;;;4.40;100.00
54022;BME280;39936;51.058;17.220;2022-11-11T03:17:19;103130.32;;;4.41;100.00
54022;BME280;39936;51.058;17.220;2022-11-11T03:21:26;103134.72;;;4.45;100.00
54022;BME280;39936;51.058;17.220;2022-11-11T03:25:05;103144.27;;;4.53;100.00
54022;BME280;39936;51.058;17.220;2022-11-11T03:28:50;103149.15;;;4.59;100.00
54022;BME280;39936;51.058;17.220;2022-11-11T03:32:02;103146.51;;;4.60;100.00
54022;BME280;39936;51.058;17.220;2022-11-11T03:35:39;103148.23;;;4.66;100.00
54022;BME280;39936;51.058;17.220;2022-11-11T03:38:54;103148.53;;;4.69;100.00
54022;BME280;39936;51.058;17.220;2022-11-11T03:42:39;103152.60;;;4.75;100.00
54022;BME280;39936;51.058;17.220;2022-11-11T03:45:58;103158.57;;;4.84;100.00
54022;BME280;39936;51.058;17.220;2022-11-11T03:49:42;103166.41;;;4.87;100.00
54022;BME280;39936;51.058;17.220;2022-11-11T03:53:20;103166.28;;;4.88;100.00
54022;BME280;39936;51.058;17.220;2022-11-11T03:57:14;103169.31;;;4.93;100.00
54022;BME280;39936;51.058;17.220;2022-11-11T04:00:44;103172.03;;;4.99;100.00
54022;BME280;39936;51.058;17.220;2022-11-11T04:03:53;103173.02;;;5.05;100.00
54022;BME280;39936;51.058;17.220;2022-11-11T04:07:39;103176.16;;;5.10;100.00
54022;BME280;39936;51.058;17.220;2022-11-11T04:11:21;103181.77;;;5.10;100.00
54022;BME280;39936;51.058;17.220;2022-11-11T04:15:04;103175.72;;;5.12;100.00
54022;BME280;39936;51.058;17.220;2022-11-11T04:19:04;103175.44;;;5.11;100.00
54022;BME280;39936;51.058;17.220;2022-11-11T04:22:51;103184.95;;;5.12;100.00
54022;BME280;39936;51.058;17.220;2022-11-11T04:26:30;103179.58;;;5.16;100.00
54022;BME280;39936;51.058;17.220;2022-11-11T04:30:19;103177.61;;;5.23;100.00
54022;BME280;39936;51.058;17.220;2022-11-11T04:33:34;103183.77;;;5.26;100.00
54022;BME280;39936;51.058;17.220;2022-11-11T04:36:49;103185.64;;;5.25;100.00
54022;BME280;39936;51.058;17.220;2022-11-11T04:40:25;103184.30;;;5.27;100.00
54022;BME280;39936;51.058;17.220;2022-11-11T04:43:47;103191.62;;;5.31;100.00
54022;BME280;39936;51.058;17.220;2022-11-11T04:47:26;103189.02;;;5.29;100.00
54022;BME280;39936;51.058;17.220;2022-11-11T04:51:14;103187.06;;;5.29;100.00
54022;BME280;39936;51.058;17.220;2022-11-11T04:55:32;103184.39;;;5.27;100.00
54022;BME280;39936;51.058;17.220;2022-11-11T04:59:18;103192.23;;;5.22;100.00
54022;BME280;39936;51.058;17.220;2022-11-11T05:03:32;103194.77;;;5.23;100.00
54022;BME280;39936;51.058;17.220;2022-11-11T05:07:17;103191.66;;;5.23;100.00
54022;BME280;39936;51.058;17.220;2022-11-11T05:10:46;103181.95;;;5.25;100.00
54022;BME280;39936;51.058;17.220;2022-11-11T05:14:17;103177.66;;;5.20;100.00
54022;BME280;39936;51.058;17.220;2022-11-11T05:17:56;103174.15;;;5.14;100.00
54022;BME280;39936;51.058;17.220;2022-11-11T05:22:31;103170.41;;;5.11;100.00
54022;BME280;39936;51.058;17.220;2022-11-11T05:26:19;103162.13;;;5.11;100.00
54022;BME280;39936;51.058;17.220;2022-11-11T05:29:56;103165.13;;;5.14;100.00
54022;BME280;39936;51.058;17.220;2022-11-11T05:33:58;103167.65;;;5.19;100.00
54022;BME280;39936;51.058;17.220;2022-11-11T05:37:12;103173.78;;;5.19;100.00
54022;BME280;39936;51.058;17.220;2022-11-11T05:40:48;103178.92;;;5.20;100.00
54022;BME280;39936;51.058;17.220;2022-11-11T05:44:01;103173.26;;;5.21;100.00
54022;BME280;39936;51.058;17.220;2022-11-11T05:47:36;103183.46;;;5.23;100.00
54022;BME280;39936;51.058;17.220;2022-11-11T05:51:00;103183.68;;;5.28;100.00
54022;BME280;39936;51.058;17.220;2022-11-11T05:55:19;103186.03;;;5.34;100.00
54022;BME280;39936;51.058;17.220;2022-11-11T05:58:50;103186.24;;;5.38;100.00
54022;BME280;39936;51.058;17.220;2022-11-11T06:02:27;103188.97;;;5.40;100.00
54022;BME280;39936;51.058;17.220;2022-11-11T06:05:46;103192.06;;;5.40;100.00
54022;BME280;39936;51.058;17.220;2022-11-11T06:09:54;103201.82;;;5.43;100.00
54022;BME280;39936;51.058;17.220;2022-11-11T06:13:38;103213.52;;;5.47;100.00
54022;BME280;39936;51.058;17.220;2022-11-11T06:17:13;103216.78;;;5.53;100.00
54022;BME280;39936;51.058;17.220;2022-11-11T06:21:00;103223.27;;;5.59;100.00
54022;BME280;39936;51.058;17.220;2022-11-11T06:24:32;103224.44;;;5.69;100.00
54022;BME280;39936;51.058;17.220;2022-11-11T06:28:27;103225.09;;;5.74;100.00
54022;BME280;39936;51.058;17.220;2022-11-11T06:31:44;103214.84;;;5.81;100.00
54022;BME280;39936;51.058;17.220;2022-11-11T06:34:57;103213.85;;;5.85;100.00
54022;BME280;39936;51.058;17.220;2022-11-11T06:38:33;103212.27;;;5.83;100.00
54022;BME280;39936;51.058;17.220;2022-11-11T06:41:52;103209.92;;;5.86;100.00
54022;BME280;39936;51.058;17.220;2022-11-11T06:45:50;103212.38;;;5.87;100.00
54022;BME280;39936;51.058;17.220;2022-11-11T06:49:31;103199.96;;;5.84;100.00
54022;BME280;39936;51.058;17.220;2022-11-11T06:52:47;103216.89;;;6.04;100.00
54022;BME280;39936;51.058;17.220;2022-11-11T06:56:17;103220.51;;;6.10;100.00
54022;BME280;39936;51.058;17.220;2022-11-11T07:00:00;103221.94;;;6.15;100.00
54022;BME280;39936;51.058;17.220;2022-11-11T07:03:53;103220.48;;;6.18;100.00
54022;BME280;39936;51.058;17.220;2022-11-11T07:07:21;103221.08;;;6.29;100.00
54022;BME280;39936;51.058;17.220;2022-11-11T07:11:12;103213.30;;;6.38;100.00
54022;BME280;39936;51.058;17.220;2022-11-11T07:14:24;103209.70;;;6.43;100.00
54022;BME280;39936;51.058;17.220;2022-11-11T07:18:14;103172.59;;;6.28;100.00
54022;BME280;39936;51.058;17.220;2022-11-11T07:21:41;103197.64;;;6.47;100.00
54022;BME280;39936;51.058;17.220;2022-11-11T07:24:55;103206.12;;;6.52;100.00
54022;BME280;39936;51.058;17.220;2022-11-11T07:28:41;103196.78;;;6.54;100.00
54022;BME280;39936;51.058;17.220;2022-11-11T07:31:59;103206.60;;;6.72;100.00
54022;BME280;39936;51.058;17.220;2022-11-11T07:35:20;103213.49;;;6.85;100.00
54022;BME280;39936;51.058;17.220;2022-11-11T07:38:46;103206.03;;;6.98;100.00
54022;BME280;39936;51.058;17.220;2022-11-11T07:42:45;103203.91;;;7.09;100.00
54022;BME280;39936;51.058;17.220;2022-11-11T07:46:56;103199.24;;;7.28;100.00
54022;BME280;39936;51.058;17.220;2022-11-11T07:50:44;103197.44;;;7.41;100.00
54022;BME280;39936;51.058;17.220;2022-11-11T07:54:11;103193.75;;;7.55;100.00
54022;BME280;39936;51.058;17.220;2022-11-11T07:57:30;103192.73;;;7.62;100.00
54022;BME280;39936;51.058;17.220;2022-11-11T08:01:30;103200.13;;;7.75;100.00
54022;BME280;39936;51.058;17.220;2022-11-11T08:05:17;103200.63;;;7.86;100.00
54022;BME280;39936;51.058;17.220;2022-11-11T08:08:46;103191.50;;;8.01;100.00
54022;BME280;39936;51.058;17.220;2022-11-11T08:16:19;103202.22;;;8.17;100.00
54022;BME280;39936;51.058;17.220;2022-11-11T08:38:24;103216.89;;;8.67;100.00
54022;BME280;39936;51.058;17.220;2022-11-11T08:41:42;103227.75;;;8.81;100.00
54022;BME280;39936;51.058;17.220;2022-11-11T08:45:52;103228.19;;;9.03;100.00
54022;BME280;39936;51.058;17.220;2022-11-11T08:49:29;103224.87;;;9.24;100.00
54022;BME280;39936;51.058;17.220;2022-11-11T08:57:23;103203.56;;;9.28;100.00
54022;BME280;39936;51.058;17.220;2022-11-11T09:01:00;103225.20;;;9.54;100.00
54022;BME280;39936;51.058;17.220;2022-11-11T09:05:55;103231.02;;;9.56;100.00
54022;BME280;39936;51.058;17.220;2022-11-11T09:09:28;103237.52;;;9.67;100.00
54022;BME280;39936;51.058;17.220;2022-11-11T09:13:09;103239.24;;;9.77;100.00
54022;BME280;39936;51.058;17.220;2022-11-11T09:16:36;103235.14;;;9.80;100.00
54022;BME280;39936;51.058;17.220;2022-11-11T09:20:21;103232.84;;;9.88;100.00
54022;BME280;39936;51.058;17.220;2022-11-11T09:24:16;103225.02;;;9.92;100.00
54022;BME280;39936;51.058;17.220;2022-11-11T09:28:01;103229.77;;;9.91;100.00
54022;BME280;39936;51.058;17.220;2022-11-11T09:31:35;103215.61;;;9.89;100.00
54022;BME280;39936;51.058;17.220;2022-11-11T09:35:09;103232.14;;;10.16;100.00
54022;BME280;39936;51.058;17.220;2022-11-11T09:38:24;103234.50;;;10.40;100.00
54022;BME280;39936;51.058;17.220;2022-11-11T09:56:47;103232.42;;;10.76;100.00
54022;BME280;39936;51.058;17.220;2022-11-11T10:04:36;103219.30;;;11.18;96.99
54022;BME280;39936;51.058;17.220;2022-11-11T10:08:05;103207.57;;;11.16;95.15
54022;BME280;39936;51.058;17.220;2022-11-11T10:11:46;103206.55;;;11.28;94.30
54022;BME280;39936;51.058;17.220;2022-11-11T10:22:50;103208.52;;;11.47;91.36
54022;BME280;39936;51.058;17.220;2022-11-11T10:26:40;103210.95;;;11.56;90.71
54022;BME280;39936;51.058;17.220;2022-11-11T10:30:29;103202.86;;;11.73;89.88
54022;BME280;39936;51.058;17.220;2022-11-11T10:33:52;103199.07;;;11.78;86.87
54022;BME280;39936;51.058;17.220;2022-11-11T10:40:54;103198.72;;;11.91;86.56
54022;BME280;39936;51.058;17.220;2022-11-11T10:44:37;103191.99;;;11.96;87.46
54022;BME280;39936;51.058;17.220;2022-11-11T10:52:09;103188.61;;;12.11;85.92
54022;BME280;39936;51.058;17.220;2022-11-11T10:55:37;103194.01;;;12.18;85.87
54022;BME280;39936;51.058;17.220;2022-11-11T10:59:01;103187.89;;;12.18;85.20
54022;BME280;39936;51.058;17.220;2022-11-11T11:02:51;103188.30;;;12.16;83.77
54022;BME280;39936;51.058;17.220;2022-11-11T11:13:54;103180.82;;;12.15;85.00
54022;BME280;39936;51.058;17.220;2022-11-11T11:21:55;103182.63;;;12.36;83.66
54022;BME280;39936;51.058;17.220;2022-11-11T11:32:57;103174.98;;;12.43;83.50
54022;BME280;39936;51.058;17.220;2022-11-11T11:36:58;103171.95;;;12.42;81.68
54022;BME280;39936;51.058;17.220;2022-11-11T11:43:53;103166.97;;;12.67;80.33
54022;BME280;39936;51.058;17.220;2022-11-11T11:48:10;103165.59;;;12.66;77.96
54022;BME280;39936;51.058;17.220;2022-11-11T11:52:01;103168.42;;;12.76;77.04
54022;BME280;39936;51.058;17.220;2022-11-11T12:49:38;103097.57;;;12.63;75.15
54022;BME280;39936;51.058;17.220;2022-11-11T12:57:01;103144.64;;;12.75;75.33
54022;BME280;39936;51.058;17.220;2022-11-11T13:00:24;103146.07;;;12.81;75.99
54022;BME280;39936;51.058;17.220;2022-11-11T13:23:41;103132.05;;;12.70;75.58
54022;BME280;39936;51.058;17.220;2022-11-11T13:27:31;103133.02;;;12.67;75.91
54022;BME280;39936;51.058;17.220;2022-11-11T13:31:52;103131.13;;;12.61;76.23
54022;BME280;39936;51.058;17.220;2022-11-11T13:39:04;103127.10;;;12.46;77.66
54022;BME280;39936;51.058;17.220;2022-11-11T13:42:48;103132.60;;;12.43;78.66
54022;BME280;39936;51.058;17.220;2022-11-11T13:50:46;103139.11;;;12.29;79.97
54022;BME280;39936;51.058;17.220;2022-11-11T13:54:50;103139.10;;;12.27;80.54
54022;BME280;39936;51.058;17.220;2022-11-11T13:58:36;103136.76;;;12.26;80.81
54022;BME280;39936;51.058;17.220;2022-11-11T14:05:31;103141.81;;;12.04;81.76
54022;BME280;39936;51.058;17.220;2022-11-11T14:08:52;103143.66;;;12.00;82.06
54022;BME280;39936;51.058;17.220;2022-11-11T14:17:11;103136.07;;;11.82;82.93
54022;BME280;39936;51.058;17.220;2022-11-11T14:20:38;103134.50;;;11.73;83.30
54022;BME280;39936;51.058;17.220;2022-11-11T14:28:23;103143.20;;;11.53;84.10
54022;BME280;39936;51.058;17.220;2022-11-11T14:32:06;103137.32;;;11.44;84.43
54022;BME280;39936;51.058;17.220;2022-11-11T14:35:59;103141.43;;;11.33;84.91
54022;BME280;39936;51.058;17.220;2022-11-11T14:43:37;103145.27;;;11.19;85.43
54022;BME280;39936;51.058;17.220;2022-11-11T14:55:39;103167.37;;;10.97;86.16
54022;BME280;39936;51.058;17.220;2022-11-11T14:59:13;103166.50;;;10.92;86.36
54022;BME280;39936;51.058;17.220;2022-11-11T15:03:14;103156.23;;;10.86;86.45
54022;BME280;39936;51.058;17.220;2022-11-11T15:06:57;103155.17;;;10.71;87.08
54022;BME280;39936;51.058;17.220;2022-11-11T15:15:23;103155.48;;;10.54;88.11
54022;BME280;39936;51.058;17.220;2022-11-11T15:23:13;103168.41;;;10.35;89.06
54022;BME280;39936;51.058;17.220;2022-11-11T15:30:11;103168.88;;;10.29;89.40
54022;BME280;39936;51.058;17.220;2022-11-11T15:34:07;103163.69;;;10.23;89.73
54022;BME280;39936;51.058;17.220;2022-11-11T15:37:29;103161.95;;;10.13;90.43
54022;BME280;39936;51.058;17.220;2022-11-11T15:45:20;103163.63;;;10.00;91.20
54022;BME280;39936;51.058;17.220;2022-11-11T15:53:02;103164.44;;;10.03;90.94
54022;BME280;39936;51.058;17.220;2022-11-11T15:56:32;103166.64;;;9.97;91.01
54022;BME280;39936;51.058;17.220;2022-11-11T16:00:27;103170.80;;;9.93;90.71
54022;BME280;39936;51.058;17.220;2022-11-11T16:03:59;103170.48;;;9.85;90.48
54022;BME280;39936;51.058;17.220;2022-11-11T16:07:59;103176.67;;;9.79;90.37
54022;BME280;39936;51.058;17.220;2022-11-11T16:11:18;103184.31;;;9.68;90.45
54022;BME280;39936;51.058;17.220;2022-11-11T16:14:48;103164.08;;;9.42;90.41
54022;BME280;39936;51.058;17.220;2022-11-11T16:18:21;103189.36;;;9.48;90.58
54022;BME280;39936;51.058;17.220;2022-11-11T16:22:15;103193.14;;;9.36;91.13
54022;BME280;39936;51.058;17.220;2022-11-11T16:25:53;103192.84;;;9.24;92.31
54022;BME280;39936;51.058;17.220;2022-11-11T16:29:14;103193.31;;;9.19;92.64
54022;BME280;39936;51.058;17.220;2022-11-11T16:32:51;103197.59;;;9.15;92.84
54022;BME280;39936;51.058;17.220;2022-11-11T16:36:31;103201.95;;;9.09;93.03
54022;BME280;39936;51.058;17.220;2022-11-11T16:40:26;103201.33;;;9.01;93.03
54022;BME280;39936;51.058;17.220;2022-11-11T16:51:48;103206.34;;;8.82;93.48
54022;BME280;39936;51.058;17.220;2022-11-11T16:59:18;103202.19;;;8.67;93.59
54022;BME280;39936;51.058;17.220;2022-11-11T17:06:52;103199.59;;;8.47;94.15
54022;BME280;39936;51.058;17.220;2022-11-11T17:10:44;103201.50;;;8.35;94.35
54022;BME280;39936;51.058;17.220;2022-11-11T17:14:18;103207.66;;;8.22;94.60
54022;BME280;39936;51.058;17.220;2022-11-11T17:17:38;103209.03;;;8.12;95.00
54022;BME280;39936;51.058;17.220;2022-11-11T17:21:23;103209.05;;;8.02;95.31
54022;BME280;39936;51.058;17.220;2022-11-11T17:25:03;103211.00;;;7.92;95.80
54022;BME280;39936;51.058;17.220;2022-11-11T17:28:51;103214.99;;;7.81;96.22
54022;BME280;39936;51.058;17.220;2022-11-11T17:32:51;103219.69;;;7.69;96.46
54022;BME280;39936;51.058;17.220;2022-11-11T17:36:08;103219.01;;;7.58;97.06
54022;BME280;39936;51.058;17.220;2022-11-11T17:39:38;103220.96;;;7.49;97.46
54022;BME280;39936;51.058;17.220;2022-11-11T17:43:13;103223.42;;;7.41;98.02
54022;BME280;39936;51.058;17.220;2022-11-11T17:46:27;103225.99;;;7.33;98.63
54022;BME280;39936;51.058;17.220;2022-11-11T17:50:18;103224.70;;;7.26;99.31
54022;BME280;39936;51.058;17.220;2022-11-11T17:53:56;103226.41;;;7.19;100.00
54022;BME280;39936;51.058;17.220;2022-11-11T17:57:42;103200.80;;;7.00;100.00
54022;BME280;39936;51.058;17.220;2022-11-11T18:00:53;103228.20;;;7.10;100.00
54022;BME280;39936;51.058;17.220;2022-11-11T18:04:08;103195.07;;;6.84;100.00
54022;BME280;39936;51.058;17.220;2022-11-11T18:07:24;103205.38;;;6.83;100.00
54022;BME280;39936;51.058;17.220;2022-11-11T18:10:39;103239.67;;;7.03;100.00
54022;BME280;39936;51.058;17.220;2022-11-11T18:14:22;103244.98;;;7.04;100.00
54022;BME280;39936;51.058;17.220;2022-11-11T18:17:34;103243.04;;;7.00;100.00
54022;BME280;39936;51.058;17.220;2022-11-11T18:21:05;103249.73;;;7.06;100.00
54022;BME280;39936;51.058;17.220;2022-11-11T18:25:06;103250.48;;;7.11;100.00
54022;BME280;39936;51.058;17.220;2022-11-11T18:28:38;103254.45;;;7.18;100.00
54022;BME280;39936;51.058;17.220;2022-11-11T18:32:13;103250.57;;;7.22;100.00
54022;BME280;39936;51.058;17.220;2022-11-11T18:35:39;103246.22;;;7.29;100.00
54022;BME280;39936;51.058;17.220;2022-11-11T18:39:09;103246.46;;;7.34;100.00
54022;BME280;39936;51.058;17.220;2022-11-11T18:42:47;103244.45;;;7.38;100.00
54022;BME280;39936;51.058;17.220;2022-11-11T18:46:35;103244.41;;;7.41;100.00
54022;BME280;39936;51.058;17.220;2022-11-11T18:49:55;103243.34;;;7.43;100.00
54022;BME280;39936;51.058;17.220;2022-11-11T18:53:16;103237.77;;;7.40;100.00
54022;BME280;39936;51.058;17.220;2022-11-11T18:56:37;103244.71;;;7.46;100.00
54022;BME280;39936;51.058;17.220;2022-11-11T19:00:13;103247.20;;;7.47;100.00
54022;BME280;39936;51.058;17.220;2022-11-11T19:04:08;103245.38;;;7.48;100.00
54022;BME280;39936;51.058;17.220;2022-11-11T19:07:41;103245.73;;;7.48;100.00
54022;BME280;39936;51.058;17.220;2022-11-11T19:11:13;103241.54;;;7.44;100.00
54022;BME280;39936;51.058;17.220;2022-11-11T19:15:09;103236.34;;;7.43;100.00
54022;BME280;39936;51.058;17.220;2022-11-11T19:18:23;103235.02;;;7.44;100.00
54022;BME280;39936;51.058;17.220;2022-11-11T19:22:22;103238.30;;;7.48;99.95
54022;BME280;39936;51.058;17.220;2022-11-11T19:25:55;103234.81;;;7.53;99.55
54022;BME280;39936;51.058;17.220;2022-11-11T19:29:07;103231.43;;;7.58;99.13
54022;BME280;39936;51.058;17.220;2022-11-11T19:32:22;103232.88;;;7.65;98.75
54022;BME280;39936;51.058;17.220;2022-11-11T19:35:37;103227.39;;;7.62;98.14
54022;BME280;39936;51.058;17.220;2022-11-11T19:39:14;103232.86;;;7.65;97.54
54022;BME280;39936;51.058;17.220;2022-11-11T19:42:48;103227.91;;;7.59;96.74
54022;BME280;39936;51.058;17.220;2022-11-11T19:46:28;103229.15;;;7.61;95.46
54022;BME280;39936;51.058;17.220;2022-11-11T19:50:09;103227.97;;;7.66;94.14
54022;BME280;39936;51.058;17.220;2022-11-11T19:53:51;103226.17;;;7.65;93.47
54022;BME280;39936;51.058;17.220;2022-11-11T19:57:05;103229.73;;;7.70;93.07
54022;BME280;39936;51.058;17.220;2022-11-11T20:00:24;103232.02;;;7.75;92.71
54022;BME280;39936;51.058;17.220;2022-11-11T20:04:03;103225.73;;;7.84;92.30
54022;BME280;39936;51.058;17.220;2022-11-11T20:07:25;103229.87;;;7.95;91.47
54022;BME280;39936;51.058;17.220;2022-11-11T20:11:03;103238.43;;;8.00;90.31
54022;BME280;39936;51.058;17.220;2022-11-11T20:14:38;103239.21;;;8.05;89.68
54022;BME280;39936;51.058;17.220;2022-11-11T20:18:17;103241.06;;;8.07;89.22
54022;BME280;39936;51.058;17.220;2022-11-11T20:21:32;103241.87;;;8.06;88.66
54022;BME280;39936;51.058;17.220;2022-11-11T20:24:47;103242.19;;;8.06;88.34
54022;BME280;39936;51.058;17.220;2022-11-11T20:27:57;103241.06;;;8.04;88.26
54022;BME280;39936;51.058;17.220;2022-11-11T20:31:56;103253.63;;;8.02;88.20
54022;BME280;39936;51.058;17.220;2022-11-11T20:35:09;103255.56;;;7.96;88.03
54022;BME280;39936;51.058;17.220;2022-11-11T20:39:17;103256.18;;;7.90;88.07
54022;BME280;39936;51.058;17.220;2022-11-11T20:42:36;103255.84;;;7.84;88.30
54022;BME280;39936;51.058;17.220;2022-11-11T20:46:35;103252.97;;;7.81;88.41
54022;BME280;39936;51.058;17.220;2022-11-11T20:58:02;103268.43;;;7.40;88.75
54022;BME280;39936;51.058;17.220;2022-11-11T21:01:26;103281.27;;;7.20;89.48
54022;BME280;39936;51.058;17.220;2022-11-11T21:05:38;103284.48;;;7.09;89.89
54022;BME280;39936;51.058;17.220;2022-11-11T21:08:52;103287.87;;;6.96;90.26
54022;BME280;39936;51.058;17.220;2022-11-11T21:12:04;103288.52;;;6.86;90.51
54022;BME280;39936;51.058;17.220;2022-11-11T21:15:45;103291.92;;;6.67;91.21
54022;BME280;39936;51.058;17.220;2022-11-11T21:19:23;103291.60;;;6.53;91.38
54022;BME280;39936;51.058;17.220;2022-11-11T21:22:42;103291.89;;;6.37;91.93
54022;BME280;39936;51.058;17.220;2022-11-11T21:26:50;103290.38;;;6.24;92.42
54022;BME280;39936;51.058;17.220;2022-11-11T21:30:20;103287.93;;;6.04;93.77
54022;BME280;39936;51.058;17.220;2022-11-11T21:34:28;103290.61;;;5.93;94.62
54022;BME280;39936;51.058;17.220;2022-11-11T21:37:52;103290.58;;;5.82;95.37
54022;BME280;39936;51.058;17.220;2022-11-11T21:42:16;103290.93;;;5.71;96.27
54022;BME280;39936;51.058;17.220;2022-11-11T21:50:44;103297.25;;;5.45;98.13
54022;BME280;39936;51.058;17.220;2022-11-11T21:54:07;103300.43;;;5.37;98.44
54022;BME280;39936;51.058;17.220;2022-11-11T21:59:05;103302.49;;;5.33;98.66
54022;BME280;39936;51.058;17.220;2022-11-11T22:08:15;103317.52;;;5.25;99.34
54022;BME280;39936;51.058;17.220;2022-11-11T22:12:09;103316.36;;;5.20;99.99
54022;BME280;39936;51.058;17.220;2022-11-11T22:27:55;103317.56;;;4.93;100.00
54022;BME280;39936;51.058;17.220;2022-11-11T22:37:09;103332.51;;;4.49;100.00
54022;BME280;39936;51.058;17.220;2022-11-11T22:40:38;103331.46;;;4.48;100.00
54022;BME280;39936;51.058;17.220;2022-11-11T22:44:47;103333.35;;;4.50;100.00
54022;BME280;39936;51.058;17.220;2022-11-11T22:52:49;103305.15;;;4.28;100.00
54022;BME280;39936;51.058;17.220;2022-11-11T23:31:33;103326.71;;;3.85;100.00
54022;BME280;39936;51.058;17.220;2022-11-11T23:43:13;103331.27;;;3.67;100.00
54022;BME280;39936;51.058;17.220;2022-11-11T23:53:53;103332.49;;;3.45;100.00
